createdAt,value
2018-03-24T00:01:55.991Z,19.13
2018-03-24T00:04:25.025Z,18.70
2018-03-24T00:06:53.339Z,16.80
2018-03-24T00:09:23.116Z,16.83
2018-03-24T00:11:51.379Z,20.50
2018-03-24T00:14:19.632Z,18.53
2018-03-24T00:16:47.925Z,20.50
2018-03-24T00:19:16.217Z,18.60
2018-03-24T00:21:44.539Z,23.53
2018-03-24T00:24:12.792Z,20.63
2018-03-24T00:26:41.056Z,20.27
2018-03-24T00:29:09.326Z,21.73
2018-03-24T00:31:37.575Z,19.20
2018-03-24T00:34:06.480Z,20.20
2018-03-24T00:36:34.743Z,21.67
2018-03-24T00:39:03.015Z,17.60
2018-03-24T00:41:31.300Z,21.67
2018-03-24T00:43:59.579Z,20.70
2018-03-24T00:46:27.819Z,29.37
2018-03-24T00:48:56.847Z,20.53
2018-03-24T00:51:25.114Z,24.90
2018-03-24T00:53:53.387Z,22.60
2018-03-24T00:56:21.642Z,22.27
2018-03-24T00:58:49.956Z,23.13
2018-03-24T01:01:18.207Z,21.37
2018-03-24T01:03:46.467Z,23.10
2018-03-24T01:06:14.762Z,21.87
2018-03-24T01:08:43.040Z,24.47
2018-03-24T01:11:11.416Z,22.73
2018-03-24T01:13:39.678Z,22.30
2018-03-24T01:16:07.998Z,19.37
2018-03-24T01:18:36.959Z,23.27
2018-03-24T01:21:05.221Z,23.57
2018-03-24T01:23:33.592Z,26.13
2018-03-24T01:26:01.867Z,23.33
2018-03-24T01:28:30.131Z,24.23
2018-03-24T01:30:59.300Z,23.10
2018-03-24T01:33:27.550Z,20.53
2018-03-24T01:35:55.960Z,25.03
2018-03-24T01:38:24.190Z,20.67
2018-03-24T01:40:52.449Z,22.90
2018-03-24T01:43:20.775Z,23.50
2018-03-24T01:45:49.052Z,20.67
2018-03-24T01:48:17.339Z,22.77
2018-03-24T01:50:45.590Z,23.23
2018-03-24T01:53:13.864Z,21.70
2018-03-24T01:55:42.163Z,22.50
2018-03-24T01:58:10.435Z,24.97
2018-03-24T02:00:38.684Z,24.37
2018-03-24T02:03:06.965Z,22.53
2018-03-24T02:05:35.317Z,25.00
2018-03-24T02:08:03.583Z,21.97
2018-03-24T02:10:31.836Z,25.80
2018-03-24T02:13:00.872Z,23.40
2018-03-24T02:15:29.120Z,22.10
2018-03-24T02:17:57.412Z,22.80
2018-03-24T02:20:25.655Z,22.83
2018-03-24T02:22:53.930Z,23.10
2018-03-24T02:25:22.221Z,22.60
2018-03-24T02:27:51.254Z,22.97
2018-03-24T02:30:19.515Z,24.20
2018-03-24T02:32:47.799Z,23.73
2018-03-24T02:35:16.052Z,23.67
2018-03-24T02:37:44.316Z,22.97
2018-03-24T02:40:12.588Z,22.30
2018-03-24T02:42:40.852Z,22.87
2018-03-24T02:45:09.141Z,20.93
2018-03-24T02:47:37.411Z,22.23
2018-03-24T02:50:05.695Z,24.33
2018-03-24T02:52:33.952Z,25.20
2018-03-24T02:55:02.349Z,28.97
2018-03-24T02:57:30.592Z,27.13
2018-03-24T02:59:58.851Z,30.87
2018-03-24T03:02:27.872Z,31.17
2018-03-24T03:04:56.155Z,31.83
2018-03-24T03:07:24.411Z,33.47
2018-03-24T03:09:52.681Z,31.97
2018-03-24T03:12:20.935Z,33.63
2018-03-24T03:14:49.976Z,30.53
2018-03-24T03:17:18.235Z,30.30
2018-03-24T03:19:46.516Z,29.77
2018-03-24T03:22:14.771Z,23.17
2018-03-24T03:24:43.799Z,23.13
2018-03-24T03:27:12.220Z,21.80
2018-03-24T03:29:41.256Z,26.07
2018-03-24T03:32:09.508Z,22.17
2018-03-24T03:34:38.593Z,25.00
2018-03-24T03:37:06.824Z,26.37
2018-03-24T03:39:35.116Z,22.00
2018-03-24T03:42:03.407Z,22.03
2018-03-24T03:44:31.838Z,21.90
2018-03-24T03:47:00.255Z,21.07
2018-03-24T03:49:28.548Z,22.10
2018-03-24T03:51:57.596Z,22.90
2018-03-24T03:54:25.898Z,21.83
2018-03-24T03:56:54.139Z,21.67
2018-03-24T03:59:22.463Z,27.93
2018-03-24T04:01:52.230Z,26.07
2018-03-24T04:04:20.474Z,25.00
2018-03-24T04:06:48.800Z,26.80
2018-03-24T04:09:17.123Z,24.80
2018-03-24T04:11:45.375Z,26.37
2018-03-24T04:14:14.405Z,25.87
2018-03-24T04:16:42.676Z,27.67
2018-03-24T04:19:11.096Z,31.63
2018-03-24T04:21:39.371Z,26.77
2018-03-24T04:24:07.644Z,26.10
2018-03-24T04:26:35.958Z,25.70
2018-03-24T04:29:05.096Z,26.80
2018-03-24T04:31:33.388Z,27.07
2018-03-24T04:34:01.671Z,28.67
2018-03-24T04:36:29.956Z,29.67
2018-03-24T04:38:59.788Z,31.93
2018-03-24T04:41:28.833Z,32.23
2018-03-24T04:43:57.100Z,30.27
2018-03-24T04:46:25.366Z,26.80
2018-03-24T04:48:53.613Z,30.97
2018-03-24T04:51:21.918Z,28.90
2018-03-24T04:53:50.207Z,31.10
2018-03-24T04:56:18.754Z,33.63
2018-03-24T04:58:47.109Z,33.43
2018-03-24T05:01:16.141Z,30.90
2018-03-24T05:03:44.379Z,29.77
2018-03-24T05:06:13.436Z,33.77
2018-03-24T05:08:41.691Z,32.97
2018-03-24T05:11:10.103Z,32.30
2018-03-24T05:13:38.363Z,30.07
2018-03-24T05:16:06.631Z,29.10
2018-03-24T05:18:34.887Z,32.53
2018-03-24T05:21:03.148Z,29.70
2018-03-24T05:23:31.415Z,32.63
2018-03-24T05:25:59.684Z,32.20
2018-03-24T05:28:28.035Z,36.93
2018-03-24T05:30:56.440Z,35.60
2018-03-24T05:33:24.709Z,36.37
2018-03-24T05:35:53.739Z,34.20
2018-03-24T05:38:22.007Z,40.83
2018-03-24T05:40:50.300Z,39.10
2018-03-24T05:43:18.573Z,37.30
2018-03-24T05:45:46.819Z,39.73
2018-03-24T05:48:15.119Z,38.97
2018-03-24T05:50:43.383Z,40.53
2018-03-24T05:53:11.631Z,36.13
2018-03-24T05:55:39.915Z,39.80
2018-03-24T05:58:08.182Z,39.10
2018-03-24T06:00:36.448Z,39.63
2018-03-24T06:03:05.634Z,38.50
2018-03-24T06:05:34.683Z,45.07
2018-03-24T06:08:02.927Z,37.67
2018-03-24T06:10:31.268Z,43.97
2018-03-24T06:12:59.701Z,40.37
2018-03-24T06:15:29.325Z,40.07
2018-03-24T06:17:57.573Z,38.87
2018-03-24T06:20:25.867Z,40.13
2018-03-24T06:22:54.135Z,38.70
2018-03-24T06:25:22.507Z,36.57
2018-03-24T06:27:50.895Z,36.70
2018-03-24T06:30:19.375Z,37.63
2018-03-24T06:32:47.637Z,31.63
2018-03-24T06:35:15.895Z,34.87
2018-03-24T06:37:44.180Z,37.77
2018-03-24T06:40:12.435Z,41.43
2018-03-24T06:42:40.712Z,39.70
2018-03-24T06:45:09.016Z,38.30
2018-03-24T06:47:37.444Z,44.33
2018-03-24T06:50:06.459Z,40.67
2018-03-24T06:52:34.805Z,44.47
2018-03-24T06:55:03.238Z,44.43
2018-03-24T06:57:31.503Z,38.70
2018-03-24T06:59:59.768Z,36.83
2018-03-24T07:02:28.051Z,38.60
2018-03-24T07:04:56.311Z,37.53
2018-03-24T07:07:24.583Z,42.57
2018-03-24T07:09:52.831Z,44.57
2018-03-24T07:12:21.120Z,44.13
2018-03-24T07:14:49.407Z,43.20
2018-03-24T07:17:17.636Z,46.43
2018-03-24T07:19:46.742Z,48.53
2018-03-24T07:22:15.023Z,41.67
2018-03-24T07:24:43.536Z,43.10
2018-03-24T07:27:11.784Z,41.00
2018-03-24T07:29:40.819Z,42.37
2018-03-24T07:32:09.104Z,37.23
2018-03-24T07:34:37.407Z,36.90
2018-03-24T07:37:05.675Z,34.37
2018-03-24T07:39:33.976Z,35.70
2018-03-24T07:42:03.013Z,33.83
2018-03-24T07:44:31.308Z,32.60
2018-03-24T07:46:59.583Z,37.13
2018-03-24T07:49:27.867Z,39.67
2018-03-24T07:51:56.125Z,40.10
2018-03-24T07:54:24.431Z,36.87
2018-03-24T07:56:52.810Z,40.70
2018-03-24T07:59:21.246Z,44.27
2018-03-24T08:01:50.240Z,40.30
2018-03-24T08:04:18.489Z,35.53
2018-03-24T08:06:46.771Z,41.27
2018-03-24T08:09:15.825Z,41.03
2018-03-24T08:11:44.107Z,42.47
2018-03-24T08:14:12.351Z,45.50
2018-03-24T08:16:40.624Z,41.47
2018-03-24T08:19:08.895Z,43.03
2018-03-24T08:21:37.162Z,41.67
2018-03-24T08:24:05.435Z,43.00
2018-03-24T08:26:33.699Z,43.60
2018-03-24T08:29:01.992Z,45.47
2018-03-24T08:31:30.492Z,41.20
2018-03-24T08:33:58.983Z,45.93
2018-03-24T08:36:28.116Z,45.23
2018-03-24T08:38:57.151Z,45.57
2018-03-24T08:41:25.444Z,45.23
2018-03-24T08:43:53.763Z,44.47
2018-03-24T08:46:22.038Z,46.97
2018-03-24T08:48:50.430Z,41.53
2018-03-24T08:51:18.840Z,44.27
2018-03-24T08:53:47.148Z,37.00
2018-03-24T08:56:16.175Z,45.73
2018-03-24T08:58:44.484Z,45.77
2018-03-24T09:01:12.759Z,39.10
2018-03-24T09:03:41.052Z,42.83
2018-03-24T09:06:09.486Z,39.10
2018-03-24T09:08:37.744Z,41.20
2018-03-24T09:11:06.124Z,40.77
2018-03-24T09:13:34.380Z,40.93
2018-03-24T09:16:02.632Z,42.00
2018-03-24T09:18:31.684Z,39.43
2018-03-24T09:20:59.963Z,37.13
2018-03-24T09:23:28.229Z,37.57
2018-03-24T09:25:56.498Z,35.60
2018-03-24T09:28:24.802Z,37.93
2018-03-24T09:30:53.016Z,35.40
2018-03-24T09:33:22.046Z,30.60
2018-03-24T09:35:50.383Z,33.03
2018-03-24T09:38:19.463Z,34.47
2018-03-24T09:40:48.528Z,32.97
2018-03-24T09:43:16.800Z,32.97
2018-03-24T09:45:45.143Z,31.40
2018-03-24T09:48:13.429Z,31.70
2018-03-24T09:50:41.739Z,30.50
2018-03-24T09:53:10.020Z,26.70
2018-03-24T09:55:38.300Z,28.87
2018-03-24T09:58:06.615Z,27.97
2018-03-24T10:00:35.155Z,25.27
2018-03-24T10:03:03.638Z,27.63
2018-03-24T10:05:31.911Z,18.07
2018-03-24T10:08:00.253Z,25.13
2018-03-24T10:10:28.535Z,28.93
2018-03-24T10:12:56.800Z,26.37
2018-03-24T10:15:25.063Z,30.03
2018-03-24T10:17:53.345Z,30.23
2018-03-24T10:20:21.599Z,30.87
2018-03-24T10:23:07.767Z,28.10
2018-03-24T10:25:36.090Z,24.10
2018-03-24T10:28:04.376Z,27.07
2018-03-24T10:30:32.669Z,25.87
2018-03-24T10:33:01.031Z,25.27
2018-03-24T10:35:29.297Z,27.07
2018-03-24T10:37:57.559Z,24.73
2018-03-24T10:40:25.823Z,20.50
2018-03-24T10:42:54.236Z,23.90
2018-03-24T10:45:22.536Z,26.73
2018-03-24T10:47:50.811Z,22.00
2018-03-24T10:50:19.915Z,22.13
2018-03-24T10:52:49.007Z,23.30
2018-03-24T10:55:18.048Z,27.33
2018-03-24T10:57:46.322Z,26.27
2018-03-24T11:00:14.611Z,25.10
2018-03-24T11:02:42.926Z,23.63
2018-03-24T11:05:11.251Z,19.97
2018-03-24T11:07:40.919Z,18.67
2018-03-24T11:10:09.976Z,22.90
2018-03-24T11:12:38.240Z,19.90
2018-03-24T11:15:06.549Z,18.33
2018-03-24T11:17:34.863Z,17.07
2018-03-24T11:20:03.159Z,21.13
2018-03-24T11:22:31.432Z,17.53
2018-03-24T11:24:59.742Z,15.97
2018-03-24T11:27:28.035Z,18.63
2018-03-24T11:29:56.279Z,17.87
2018-03-24T11:32:24.571Z,18.53
2018-03-24T11:34:52.867Z,19.97
2018-03-24T11:37:21.967Z,19.77
2018-03-24T11:39:50.197Z,16.63
2018-03-24T11:42:18.507Z,14.63
2018-03-24T11:44:48.382Z,17.80
2018-03-24T11:47:16.679Z,15.80
2018-03-24T11:49:44.937Z,14.47
2018-03-24T11:52:13.236Z,19.77
2018-03-24T11:54:43.410Z,17.43
2018-03-24T11:57:11.732Z,17.57
2018-03-24T11:59:40.771Z,15.00
2018-03-24T12:02:09.052Z,15.53
2018-03-24T12:04:37.315Z,16.57
2018-03-24T12:07:05.595Z,18.23
2018-03-24T12:09:33.863Z,19.73
2018-03-24T12:12:04.318Z,17.50
2018-03-24T12:14:32.840Z,22.23
2018-03-24T12:17:01.312Z,19.20
2018-03-24T12:19:31.088Z,21.80
2018-03-24T12:21:59.338Z,21.27
2018-03-24T12:24:27.631Z,20.67
2018-03-24T12:26:55.996Z,24.63
2018-03-24T12:29:24.284Z,23.27
2018-03-24T12:31:52.547Z,14.43
2018-03-24T12:34:20.834Z,13.07
2018-03-24T12:36:49.106Z,14.70
2018-03-24T12:39:17.407Z,14.87
2018-03-24T12:41:45.744Z,16.27
2018-03-24T12:44:14.028Z,18.30
2018-03-24T12:46:42.369Z,18.27
2018-03-24T12:49:12.143Z,15.47
2018-03-24T12:51:40.400Z,15.17
2018-03-24T12:54:08.715Z,16.73
2018-03-24T12:56:36.976Z,13.40
2018-03-24T12:59:05.282Z,13.23
2018-03-24T13:01:34.331Z,12.67
2018-03-24T13:04:02.607Z,13.53
2018-03-24T13:06:30.921Z,10.00
2018-03-24T13:08:59.949Z,13.50
2018-03-24T13:11:28.291Z,11.70
2018-03-24T13:13:57.336Z,11.23
2018-03-24T13:16:25.696Z,12.83
2018-03-24T13:18:53.972Z,11.40
2018-03-24T13:21:22.272Z,9.93
2018-03-24T13:23:50.519Z,12.27
2018-03-24T13:26:18.788Z,12.40
2018-03-24T13:28:47.083Z,13.63
2018-03-24T13:31:15.366Z,13.93
2018-03-24T13:33:43.655Z,11.37
2018-03-24T13:36:12.113Z,13.10
2018-03-24T13:38:40.408Z,13.00
2018-03-24T13:41:08.676Z,14.10
2018-03-24T13:43:37.096Z,12.80
2018-03-24T13:46:06.275Z,10.67
2018-03-24T13:48:35.419Z,12.73
2018-03-24T13:51:03.695Z,12.83
2018-03-24T13:53:32.011Z,11.93
2018-03-24T13:56:00.243Z,15.20
2018-03-24T13:58:28.528Z,12.47
2018-03-24T14:00:56.800Z,12.17
2018-03-24T14:03:25.076Z,11.93
2018-03-24T14:05:53.556Z,13.00
2018-03-24T14:08:21.875Z,13.20
2018-03-24T14:10:50.214Z,12.97
2018-03-24T14:13:18.636Z,12.87
2018-03-24T14:15:47.813Z,11.00
2018-03-24T14:18:16.059Z,14.60
2018-03-24T14:20:44.355Z,10.80
2018-03-24T14:23:12.619Z,10.17
2018-03-24T14:25:40.907Z,11.83
2018-03-24T14:28:10.696Z,10.57
2018-03-24T14:30:38.964Z,12.57
2018-03-24T14:33:08.155Z,13.07
2018-03-24T14:35:36.480Z,12.23
2018-03-24T14:38:04.735Z,11.13
2018-03-24T14:40:33.016Z,11.93
2018-03-24T14:43:01.622Z,12.53
2018-03-24T14:45:29.823Z,12.47
2018-03-24T14:47:58.080Z,11.00
2018-03-24T14:50:27.127Z,12.10
2018-03-24T14:52:55.379Z,11.33
2018-03-24T14:55:23.724Z,13.93
2018-03-24T14:57:52.836Z,13.70
2018-03-24T15:00:21.131Z,11.37
2018-03-24T15:02:49.381Z,11.17
2018-03-24T15:05:17.660Z,10.90
2018-03-24T15:07:46.111Z,12.37
2018-03-24T15:10:15.147Z,10.63
2018-03-24T15:12:43.456Z,13.23
2018-03-24T15:15:12.516Z,11.43
2018-03-24T15:17:40.827Z,12.80
2018-03-24T15:20:09.096Z,13.90
2018-03-24T15:22:37.599Z,13.87
2018-03-24T15:25:05.847Z,12.13
2018-03-24T15:27:34.140Z,14.90
2018-03-24T15:30:17.215Z,11.43
2018-03-24T15:32:51.511Z,10.53
2018-03-24T15:35:26.571Z,9.83
2018-03-24T15:37:54.844Z,11.27
2018-03-24T15:40:23.169Z,10.47
2018-03-24T15:42:51.458Z,10.37
2018-03-24T15:45:20.535Z,19.43
2018-03-24T15:47:48.854Z,11.93
2018-03-24T15:50:17.133Z,9.80
2018-03-24T15:52:45.563Z,11.10
2018-03-24T15:55:13.780Z,10.23
2018-03-24T15:57:42.067Z,11.53
2018-03-24T16:00:10.327Z,9.80
2018-03-24T16:02:38.619Z,11.80
2018-03-24T16:05:06.895Z,10.07
2018-03-24T16:07:35.144Z,9.80
2018-03-24T16:10:03.432Z,11.07
2018-03-24T16:12:31.700Z,12.93
2018-03-24T16:15:00.038Z,10.37
2018-03-24T16:17:28.325Z,12.83
2018-03-24T16:19:57.368Z,14.90
2018-03-24T16:22:25.640Z,11.00
2018-03-24T16:24:54.031Z,12.23
2018-03-24T16:27:22.279Z,10.67
2018-03-24T16:29:50.577Z,10.93
2018-03-24T16:32:18.824Z,10.63
2018-03-24T16:34:47.188Z,12.37
2018-03-24T16:37:15.572Z,10.27
2018-03-24T16:39:43.872Z,12.50
2018-03-24T16:42:12.168Z,11.73
2018-03-24T16:44:40.435Z,12.70
2018-03-24T16:47:08.728Z,10.97
2018-03-24T16:49:37.029Z,12.53
2018-03-24T16:52:05.388Z,14.33
2018-03-24T16:54:34.476Z,19.80
2018-03-24T16:57:02.769Z,12.70
2018-03-24T16:59:31.830Z,14.40
2018-03-24T17:02:00.108Z,12.90
2018-03-24T17:04:28.490Z,11.80
2018-03-24T17:06:56.776Z,13.53
2018-03-24T17:09:25.872Z,13.33
2018-03-24T17:11:54.151Z,15.73
2018-03-24T17:14:22.444Z,16.10
2018-03-24T17:16:50.743Z,11.53
2018-03-24T17:19:19.314Z,14.07
2018-03-24T17:21:47.558Z,13.37
2018-03-24T17:24:15.848Z,13.53
2018-03-24T17:26:44.862Z,10.87
2018-03-24T17:29:13.163Z,11.03
2018-03-24T17:31:41.487Z,12.33
2018-03-24T17:34:11.448Z,12.57
2018-03-24T17:36:39.805Z,11.40
2018-03-24T17:39:08.088Z,10.57
2018-03-24T17:41:36.387Z,13.17
2018-03-24T17:44:04.680Z,13.50
2018-03-24T17:46:34.457Z,12.53
2018-03-24T17:49:02.778Z,12.03
2018-03-24T17:51:31.072Z,11.83
2018-03-24T17:54:00.256Z,14.73
2018-03-24T17:56:28.498Z,16.07
2018-03-24T17:58:56.774Z,16.23
2018-03-24T18:01:25.935Z,20.37
2018-03-24T18:03:54.320Z,20.37
2018-03-24T18:06:22.667Z,22.57
2018-03-24T18:08:51.083Z,16.60
2018-03-24T18:11:19.500Z,15.57
2018-03-24T18:13:47.853Z,14.90
2018-03-24T18:16:16.223Z,15.73
2018-03-24T18:18:44.471Z,12.53
2018-03-24T18:21:12.752Z,14.03
2018-03-24T18:23:41.002Z,13.10
2018-03-24T18:26:10.065Z,11.30
2018-03-24T18:28:38.327Z,14.23
2018-03-24T18:31:06.584Z,13.13
2018-03-24T18:33:34.868Z,12.50
2018-03-24T18:36:03.143Z,12.90
2018-03-24T18:38:31.403Z,11.87
2018-03-24T18:40:59.671Z,13.73
2018-03-24T18:43:27.933Z,12.57
2018-03-24T18:45:56.991Z,18.77
2018-03-24T18:48:25.245Z,14.67
2018-03-24T18:50:53.509Z,17.07
2018-03-24T18:53:21.787Z,13.90
2018-03-24T18:55:50.196Z,16.00
2018-03-24T18:58:18.524Z,18.67
2018-03-24T19:00:46.788Z,16.73
2018-03-24T19:03:15.063Z,16.77
2018-03-24T19:05:43.407Z,16.37
2018-03-24T19:08:12.460Z,15.00
2018-03-24T19:10:40.744Z,16.50
2018-03-24T19:13:09.702Z,13.93
2018-03-24T19:15:38.509Z,17.27
2018-03-24T19:18:06.808Z,18.37
2018-03-24T19:20:36.592Z,18.07
2018-03-24T19:23:04.894Z,21.90
2018-03-24T19:25:33.180Z,28.93
2018-03-24T19:28:01.455Z,48.47
2018-03-24T19:30:29.746Z,77.23
2018-03-24T19:32:58.787Z,82.73
2018-03-24T19:35:27.113Z,56.20
2018-03-24T19:37:55.383Z,84.30
2018-03-24T19:40:23.686Z,162.07
2018-03-24T19:42:51.983Z,23.03
2018-03-24T19:45:20.268Z,18.90
2018-03-24T19:47:48.525Z,22.17
2018-03-24T19:50:16.808Z,29.90
2018-03-24T19:52:45.078Z,19.97
2018-03-24T19:55:13.512Z,21.50
2018-03-24T19:57:42.636Z,21.10
2018-03-24T20:00:10.838Z,25.83
2018-03-24T20:02:39.211Z,22.10
2018-03-24T20:05:07.460Z,20.37
2018-03-24T20:07:35.754Z,19.27
2018-03-24T20:10:04.028Z,19.67
2018-03-24T20:12:32.288Z,20.47
2018-03-24T20:15:00.673Z,21.13
2018-03-24T20:17:28.984Z,19.27
2018-03-24T20:19:57.491Z,20.70
2018-03-24T20:22:25.747Z,20.40
2018-03-24T20:24:54.019Z,21.93
2018-03-24T20:27:22.280Z,22.83
2018-03-24T20:29:50.562Z,22.43
2018-03-24T20:32:18.912Z,20.57
2018-03-24T20:34:47.179Z,21.37
2018-03-24T20:37:15.448Z,23.33
2018-03-24T20:39:43.751Z,19.93
2018-03-24T20:42:12.046Z,20.70
2018-03-24T20:44:40.311Z,23.20
2018-03-24T20:47:08.583Z,22.77
2018-03-24T20:49:36.926Z,21.77
2018-03-24T20:52:05.938Z,23.97
2018-03-24T20:54:34.228Z,23.93
2018-03-24T20:57:02.476Z,19.97
2018-03-24T20:59:30.763Z,22.03
2018-03-24T21:01:59.027Z,22.47
2018-03-24T21:04:27.314Z,25.20
2018-03-24T21:06:55.591Z,26.07
2018-03-24T21:09:23.876Z,22.70
2018-03-24T21:11:52.343Z,27.63
2018-03-24T21:14:20.758Z,28.90
2018-03-24T21:16:49.026Z,24.33
2018-03-24T21:19:17.288Z,22.97
2018-03-24T21:21:45.560Z,25.40
2018-03-24T21:24:13.825Z,20.43
2018-03-24T21:26:42.092Z,24.73
2018-03-24T21:29:11.200Z,24.03
2018-03-24T21:31:39.473Z,27.77
2018-03-24T21:34:09.603Z,24.80
2018-03-24T21:36:37.893Z,28.70
2018-03-24T21:39:06.124Z,25.80
2018-03-24T21:41:34.399Z,24.67
2018-03-24T21:44:02.639Z,27.80
2018-03-24T21:46:31.686Z,24.50
2018-03-24T21:48:59.931Z,27.00
2018-03-24T21:51:28.249Z,26.40
2018-03-24T21:53:56.504Z,32.90
2018-03-24T21:56:24.804Z,44.30
2018-03-24T21:58:53.141Z,45.43
2018-03-24T22:01:21.332Z,39.80
2018-03-24T22:03:49.612Z,40.90
2018-03-24T22:06:17.864Z,42.77
2018-03-24T22:08:46.389Z,38.73
2018-03-24T22:11:14.636Z,36.20
2018-03-24T22:13:42.989Z,33.10
2018-03-24T22:16:11.288Z,35.10
2018-03-24T22:18:39.528Z,33.83
2018-03-24T22:21:07.820Z,31.90
2018-03-24T22:23:36.071Z,29.47
2018-03-24T22:26:04.339Z,31.90
2018-03-24T22:28:32.641Z,29.67
2018-03-24T22:31:01.627Z,29.00
2018-03-24T22:33:29.891Z,28.33
2018-03-24T22:35:58.140Z,34.40
2018-03-24T22:38:27.205Z,31.27
2018-03-24T22:40:55.462Z,34.10
2018-03-24T22:43:23.727Z,32.37
2018-03-24T22:45:51.992Z,36.13
2018-03-24T22:48:20.429Z,34.73
2018-03-24T22:50:48.668Z,33.30
2018-03-24T22:53:16.953Z,34.37
2018-03-24T22:55:45.206Z,36.53
2018-03-24T22:58:13.505Z,53.37
2018-03-24T23:00:41.775Z,44.13
2018-03-24T23:03:10.042Z,44.13
2018-03-24T23:05:38.317Z,41.73
2018-03-24T23:08:06.567Z,34.00
2018-03-24T23:10:34.825Z,32.47
2018-03-24T23:13:03.123Z,35.43
2018-03-24T23:15:31.396Z,37.00
2018-03-24T23:17:59.624Z,27.87
2018-03-24T23:20:27.917Z,34.27
2018-03-24T23:22:57.012Z,45.13
2018-03-24T23:25:26.073Z,37.23
2018-03-24T23:27:54.341Z,31.87
2018-03-24T23:30:22.604Z,30.17
2018-03-24T23:32:50.872Z,32.83
2018-03-24T23:35:19.128Z,33.33
2018-03-24T23:37:47.399Z,33.30
2018-03-24T23:40:15.679Z,32.30
2018-03-24T23:42:43.967Z,28.07
2018-03-24T23:45:12.233Z,28.70
2018-03-24T23:47:40.517Z,32.40
2018-03-24T23:50:08.794Z,28.87
2018-03-24T23:52:37.063Z,32.03
2018-03-24T23:55:05.331Z,31.87
2018-03-24T23:57:33.613Z,30.03
